Time;durP1;ratioP1;P1;durP2;ratioP2;P2;SDS_P1;SDS_P2;PMS_P1;PMS_P2;Temp;Humidity;BMP_temperature;BMP_pressure;BME280_temperature;BME280_humidity;BME280_pressure;Samples;Min_cycle;Max_cycle;Signal;HPM_P1;HPM_P2
2022/07/27 00:00:23;;;;;;;52.53;49.83;;;;;;;22.77;38.76;101906.00;4882097;29;20093;-69
2022/07/27 00:02:50;;;;;;;53.65;51.05;;;;;;;22.74;38.45;101901.91;4896465;29;20047;-69
2022/07/27 00:05:15;;;;;;;51.95;49.45;;;;;;;22.73;38.34;101904.94;4881964;29;20119;-69
2022/07/27 00:07:41;;;;;;;51.58;48.53;;;;;;;22.71;38.81;101904.44;4896549;29;20422;-69
2022/07/27 00:10:07;;;;;;;51.63;49.22;;;;;;;22.69;38.42;101901.97;4881965;29;20052;-69
2022/07/27 00:12:32;;;;;;;51.15;48.60;;;;;;;22.66;38.81;101908.91;4881820;29;20037;-67
2022/07/27 00:14:58;;;;;;;51.97;49.33;;;;;;;22.64;38.97;101905.63;4881645;29;20609;-69
2022/07/27 00:17:26;;;;;;;52.05;49.53;;;;;;;22.62;38.62;101907.84;4882314;29;20446;-69
2022/07/27 00:19:52;;;;;;;50.70;48.15;;;;;;;22.60;38.46;101906.50;4881805;29;20033;-69
2022/07/27 00:22:17;;;;;;;52.25;49.65;;;;;;;22.57;38.81;101905.16;4881698;29;20033;-69
2022/07/27 00:24:43;;;;;;;49.17;46.78;;;;;;;22.55;38.86;101907.38;4881452;29;20041;-69
2022/07/27 00:27:08;;;;;;;51.42;48.72;;;;;;;22.54;38.73;101896.69;4881431;29;20041;-71
2022/07/27 00:29:34;;;;;;;48.80;46.50;;;;;;;22.52;38.56;101902.47;4881981;29;20036;-70
2022/07/27 00:31:59;;;;;;;47.90;45.70;;;;;;;22.50;38.55;101895.63;4881606;29;20491;-69
2022/07/27 00:34:25;;;;;;;48.70;46.22;;;;;;;22.47;38.86;101897.84;4881595;29;20359;-69
2022/07/27 00:36:50;;;;;;;50.88;48.28;;;;;;;22.46;38.75;101892.66;4881342;29;20037;-69
2022/07/27 00:39:16;;;;;;;50.05;47.45;;;;;;;22.44;38.90;101895.69;4881422;29;20032;-69
2022/07/27 00:41:41;;;;;;;49.97;47.65;;;;;;;22.42;38.84;101888.84;4881899;29;20041;-69
2022/07/27 00:44:07;;;;;;;50.22;47.90;;;;;;;22.39;39.18;101893.00;4881472;29;20028;-68
2022/07/27 00:46:32;;;;;;;48.78;46.17;;;;;;;22.38;38.88;101888.63;4881321;29;20033;-69
2022/07/27 00:48:58;;;;;;;48.72;46.28;;;;;;;22.36;38.91;101890.84;4881887;29;20092;-69
2022/07/27 00:51:24;;;;;;;51.08;48.47;;;;;;;22.33;39.04;101888.69;4881680;29;20481;-71
2022/07/27 00:53:51;;;;;;;48.20;45.80;;;;;;;22.32;39.28;101892.53;4879980;29;20044;-71
2022/07/27 00:56:17;;;;;;;48.30;45.97;;;;;;;22.31;39.12;101893.66;4880886;29;20505;-69
2022/07/27 00:58:47;;;;;;;47.10;44.70;;;;;;;22.29;39.17;101892.31;4881178;29;20045;-69
2022/07/27 01:01:14;;;;;;;47.35;45.13;;;;;;;22.27;38.95;101894.53;4881682;29;20144;-69
2022/07/27 01:03:39;;;;;;;49.33;47.05;;;;;;;22.24;38.91;101894.00;4880830;29;20065;-70
2022/07/27 01:06:05;;;;;;;48.17;45.53;;;;;;;22.21;39.12;101889.09;4880152;29;20033;-70
2022/07/27 01:08:31;;;;;;;48.90;46.35;;;;;;;22.19;39.08;101887.72;4894983;29;20057;-70
2022/07/27 01:10:57;;;;;;;48.75;46.25;;;;;;;22.18;39.46;101895.16;4880963;29;20473;-69
2022/07/27 01:13:25;;;;;;;48.40;46.05;;;;;;;22.16;39.15;101885.56;4880711;29;20049;-67
2022/07/27 01:15:51;;;;;;;46.58;44.13;;;;;;;22.14;38.82;101885.03;4880796;29;20044;-69
2022/07/27 01:18:29;;;;;;;48.65;46.15;;;;;;;22.11;39.19;101886.44;4880330;29;20040;-68
2022/07/27 01:20:56;;;;;;;46.97;44.47;;;;;;;22.10;38.99;101889.47;4880919;29;20096;-70
2022/07/27 01:23:23;;;;;;;48.78;46.20;;;;;;;22.07;39.44;101885.38;4880534;29;20037;-69
2022/07/27 01:25:49;;;;;;;47.92;45.42;;;;;;;22.05;39.15;101901.38;4880656;29;20040;-70
2022/07/27 01:28:14;;;;;;;48.40;46.13;;;;;;;22.03;39.36;101898.09;4880752;29;20113;-69
2022/07/27 01:30:39;;;;;;;49.40;46.63;;;;;;;22.01;39.31;101892.06;4880651;29;20033;-69
2022/07/27 01:33:08;;;;;;;47.55;45.15;;;;;;;21.98;39.43;101896.22;4880395;29;20465;-69
2022/07/27 01:35:34;;;;;;;47.88;45.47;;;;;;;21.96;39.04;101898.41;4880389;29;20041;-70
2022/07/27 01:38:00;;;;;;;46.42;44.10;;;;;;;21.94;39.07;101892.38;4880981;29;20033;-71
2022/07/27 01:40:26;;;;;;;47.72;45.42;;;;;;;21.93;39.30;101892.69;4879243;29;20036;-71
2022/07/27 01:42:51;;;;;;;48.58;46.08;;;;;;;21.91;39.27;101889.41;4880713;29;20033;-71
2022/07/27 01:45:17;;;;;;;47.10;44.70;;;;;;;21.89;39.70;101881.44;4880885;29;20052;-72
2022/07/27 01:47:42;;;;;;;47.75;45.45;;;;;;;21.86;39.20;101876.53;4880357;29;20051;-72
2022/07/27 01:50:08;;;;;;;47.30;44.90;;;;;;;21.85;39.73;101880.41;4880653;29;20359;-72
2022/07/27 01:52:33;;;;;;;49.78;47.00;;;;;;;21.84;39.19;101884.25;4880076;29;20045;-71
2022/07/27 01:54:59;;;;;;;46.92;44.53;;;;;;;21.80;39.69;101880.44;4879290;29;20045;-70
2022/07/27 01:57:24;;;;;;;47.60;44.75;;;;;;;21.78;39.16;101882.66;4879837;29;20052;-72
2022/07/27 01:59:51;;;;;;;48.40;45.80;;;;;;;21.76;39.30;101876.63;4879864;29;20041;-71
2022/07/27 02:02:16;;;;;;;47.55;45.15;;;;;;;21.74;39.68;101873.34;4880510;29;20600;-71
2022/07/27 02:04:42;;;;;;;47.08;44.78;;;;;;;21.71;39.74;101872.00;4880240;29;20069;-70
2022/07/27 02:07:07;;;;;;;45.88;43.58;;;;;;;21.70;39.66;101881.38;4880514;29;20374;-71
2022/07/27 02:09:33;;;;;;;47.33;44.92;;;;;;;21.68;39.81;101877.28;4880261;29;20037;-73
2022/07/27 02:14:42;;;;;;;46.30;43.78;;;;;;;21.63;39.55;101883.63;4880151;29;20067;-71
2022/07/27 02:17:08;;;;;;;46.15;43.85;;;;;;;21.61;39.91;101880.34;4880172;29;20454;-71
2022/07/27 02:19:33;;;;;;;46.92;44.63;;;;;;;21.58;39.75;101879.00;4878668;29;20040;-71
2022/07/27 02:21:58;;;;;;;46.70;44.50;;;;;;;21.56;39.87;101875.72;4879811;29;20029;-69
2022/07/27 02:24:23;;;;;;;45.25;42.80;;;;;;;21.53;39.46;101870.81;4879768;29;20073;-69
2022/07/27 02:26:49;;;;;;;47.70;45.17;;;;;;;21.52;39.89;101869.19;4879888;29;20478;-70
2022/07/27 02:29:14;;;;;;;45.33;42.92;;;;;;;21.51;39.82;101869.44;4878578;29;20041;-70
2022/07/27 02:31:40;;;;;;;48.00;45.28;;;;;;;21.48;39.75;101870.84;4879913;29;20415;-72
2022/07/27 02:34:05;;;;;;;44.83;42.72;;;;;;;21.47;39.65;101871.97;4879677;29;20043;-72
2022/07/27 02:36:30;;;;;;;46.13;43.83;;;;;;;21.44;39.60;101867.03;4879677;29;20439;-71
2022/07/27 02:38:57;;;;;;;47.00;44.08;;;;;;;21.42;39.94;101862.94;4879398;29;20124;-70
2022/07/27 02:41:22;;;;;;;46.10;43.80;;;;;;;21.39;39.92;101862.41;4879657;29;20037;-69
2022/07/27 02:43:48;;;;;;;45.53;43.35;;;;;;;21.39;39.96;101856.09;4879508;29;20036;-69
2022/07/27 02:46:13;;;;;;;44.53;42.42;;;;;;;21.36;39.79;101856.63;4879603;29;20040;-69
2022/07/27 02:48:38;;;;;;;47.00;44.60;;;;;;;21.34;39.97;101864.34;4879198;29;20083;-71
2022/07/27 02:51:04;;;;;;;46.70;44.30;;;;;;;21.31;40.06;101859.44;4879304;29;20473;-69
2022/07/27 02:53:30;;;;;;;46.60;44.30;;;;;;;21.29;40.08;101857.00;4879406;29;20077;-71
2022/07/27 02:55:56;;;;;;;45.25;43.08;;;;;;;21.28;40.17;101869.06;4879237;29;20044;-69
2022/07/27 02:58:21;;;;;;;45.33;43.13;;;;;;;21.26;39.87;101865.78;4879526;29;20033;-70
2022/07/27 03:00:47;;;;;;;44.97;42.58;;;;;;;21.25;40.08;101866.91;4879504;29;20514;-71
2022/07/27 03:03:13;;;;;;;44.63;42.42;;;;;;;21.23;40.09;101868.28;4878023;29;20120;-69
2022/07/27 03:05:38;;;;;;;46.30;43.95;;;;;;;21.21;39.85;101867.75;4879334;29;20477;-69
2022/07/27 03:08:04;;;;;;;44.13;42.03;;;;;;;21.19;39.92;101873.53;4879478;29;20449;-70
2022/07/27 03:10:30;;;;;;;45.30;42.88;;;;;;;21.17;40.19;101875.75;4879402;29;20041;-68
2022/07/27 03:12:56;;;;;;;46.13;43.72;;;;;;;21.14;40.02;101868.06;4879833;29;20064;-69
2022/07/27 03:15:21;;;;;;;45.05;42.78;;;;;;;21.13;39.76;101870.00;4879011;29;20038;-68
2022/07/27 03:17:47;;;;;;;45.92;43.45;;;;;;;21.10;40.24;101869.78;4879791;29;20555;-69
2022/07/27 03:20:12;;;;;;;45.65;43.45;;;;;;;21.08;40.25;101870.03;4879302;29;20033;-69
2022/07/27 03:22:38;;;;;;;45.90;43.60;;;;;;;21.07;39.85;101864.84;4879205;29;20033;-68
2022/07/27 03:25:04;;;;;;;44.40;41.78;;;;;;;21.04;39.90;101874.50;4879261;29;20413;-68
2022/07/27 03:27:29;;;;;;;44.88;42.28;;;;;;;21.03;40.08;101869.28;4879180;29;20041;-69
2022/07/27 03:29:55;;;;;;;44.45;42.35;;;;;;;21.00;39.95;101873.41;4877809;29;20036;-70
2022/07/27 03:32:21;;;;;;;45.15;42.85;;;;;;;20.99;40.11;101871.78;4879609;29;20068;-69
2022/07/27 03:34:46;;;;;;;44.08;41.70;;;;;;;20.97;40.29;101876.72;4893557;29;20056;-69
2022/07/27 03:37:11;;;;;;;43.00;40.90;;;;;;;20.94;40.49;101867.13;4879214;29;20526;-70
2022/07/27 03:39:37;;;;;;;45.08;42.88;;;;;;;20.93;39.68;101873.72;4879411;29;20040;-71
2022/07/27 03:42:02;;;;;;;44.35;41.60;;;;;;;20.90;40.32;101870.72;4878581;29;20036;-70
2022/07/27 03:44:28;;;;;;;42.95;40.95;;;;;;;20.89;40.16;101872.66;4882277;29;20033;-71
2022/07/27 03:46:53;;;;;;;43.70;41.60;;;;;;;20.87;40.34;101874.88;4882244;29;20040;-71
2022/07/27 03:49:19;;;;;;;43.50;41.30;;;;;;;20.86;39.92;101873.22;4882486;29;20124;-72
2022/07/27 03:51:44;;;;;;;45.30;43.03;;;;;;;20.84;40.36;101875.44;4882403;29;20069;-71
2022/07/27 03:54:10;;;;;;;45.63;43.22;;;;;;;20.81;39.92;101877.91;4882602;29;20037;-72
2022/07/27 03:56:35;;;;;;;44.38;42.17;;;;;;;20.79;40.28;101875.47;4882239;29;20064;-71
2022/07/27 03:59:00;;;;;;;43.08;40.90;;;;;;;20.78;40.07;101873.00;4882776;29;20429;-71
2022/07/27 04:01:26;;;;;;;41.53;39.55;;;;;;;20.76;40.48;101876.03;4882302;29;20029;-71
2022/07/27 04:03:51;;;;;;;43.63;41.17;;;;;;;20.73;40.53;101877.41;4882195;29;20049;-72
2022/07/27 04:06:17;;;;;;;42.80;40.70;;;;;;;20.71;40.48;101879.66;4882142;29;20390;-71
2022/07/27 04:08:42;;;;;;;43.33;41.03;;;;;;;20.69;40.16;101884.59;4882347;29;20159;-70
2022/07/27 04:11:08;;;;;;;45.15;42.95;;;;;;;20.67;40.13;101878.56;4882370;29;20113;-72
2022/07/27 04:13:33;;;;;;;43.35;41.15;;;;;;;20.65;40.45;101880.75;4882042;29;20033;-70
2022/07/27 04:15:58;;;;;;;42.95;40.83;;;;;;;20.63;40.55;101874.72;4882054;29;20033;-72
2022/07/27 04:18:24;;;;;;;45.15;42.75;;;;;;;20.60;40.23;101880.78;4881874;29;20071;-71
2022/07/27 04:20:49;;;;;;;44.55;42.38;;;;;;;20.59;40.37;101875.56;4880377;29;20083;-71
2022/07/27 04:23:14;;;;;;;43.58;41.38;;;;;;;20.56;40.71;101876.13;4881873;29;20037;-70
2022/07/27 04:25:40;;;;;;;46.05;43.85;;;;;;;20.54;40.59;101887.41;4881722;29;20363;-72
2022/07/27 04:28:05;;;;;;;43.13;40.55;;;;;;;20.53;40.21;101880.25;4881853;29;20600;-70
2022/07/27 04:30:31;;;;;;;45.50;43.30;;;;;;;20.51;40.59;101875.06;4881823;29;20461;-71
2022/07/27 04:32:56;;;;;;;43.53;41.20;;;;;;;20.49;40.74;101882.75;4881202;29;20043;-71
2022/07/27 04:35:22;;;;;;;42.97;40.78;;;;;;;20.47;40.42;101884.13;4881655;29;20074;-72
2022/07/27 04:37:47;;;;;;;43.15;40.83;;;;;;;20.46;40.49;101893.44;4881866;29;20363;-71
2022/07/27 04:40:12;;;;;;;42.60;40.05;;;;;;;20.43;40.58;101888.53;4881896;29;20032;-73
2022/07/27 04:42:38;;;;;;;45.45;43.15;;;;;;;20.42;40.82;101892.38;4881569;29;20033;-70
2022/07/27 04:45:04;;;;;;;43.22;41.15;;;;;;;20.40;40.85;101894.59;4880959;29;20395;-72
2022/07/27 04:47:30;;;;;;;42.05;39.95;;;;;;;20.37;40.81;101887.72;4881364;29;20511;-69
2022/07/27 04:49:55;;;;;;;42.22;40.13;;;;;;;20.35;40.63;101898.16;4881642;29;20118;-70
2022/07/27 04:52:21;;;;;;;41.63;39.58;;;;;;;20.35;40.87;101902.84;4881580;29;20037;-71
2022/07/27 04:54:51;;;;;;;42.28;40.17;;;;;;;20.33;41.14;101897.63;4881304;29;20416;-68
2022/07/27 04:57:16;;;;;;;40.53;38.53;;;;;;;20.31;40.83;101897.09;4881253;29;20116;-70
2022/07/27 04:59:41;;;;;;;42.35;39.90;;;;;;;20.30;40.89;101903.66;4895431;29;20120;-70
2022/07/27 05:02:07;;;;;;;41.10;39.10;;;;;;;20.27;40.88;101907.78;4881129;29;20064;-70
2022/07/27 05:04:32;;;;;;;43.55;41.33;;;;;;;20.27;40.73;101915.22;4881302;29;20041;-69
2022/07/27 05:06:58;;;;;;;42.20;39.90;;;;;;;20.26;40.94;101919.88;4880774;29;20397;-71
2022/07/27 05:09:23;;;;;;;42.30;40.00;;;;;;;20.25;41.13;101912.72;4881510;29;20366;-70
2022/07/27 05:11:49;;;;;;;44.05;41.50;;;;;;;20.25;40.66;101911.91;4880842;29;20422;-70
2022/07/27 05:14:14;;;;;;;41.85;39.53;;;;;;;20.24;41.38;101916.59;4881488;29;20060;-70
2022/07/27 05:16:39;;;;;;;43.00;40.70;;;;;;;20.24;41.16;101915.78;4880923;29;20032;-69
2022/07/27 05:19:05;;;;;;;42.75;40.08;;;;;;;20.23;41.64;101916.84;4880977;29;20060;-68
2022/07/27 05:21:31;;;;;;;42.65;40.25;;;;;;;20.22;41.38;101916.03;4880829;29;20501;-71
2022/07/27 05:23:56;;;;;;;42.63;40.40;;;;;;;20.22;41.58;101915.22;4880749;29;20037;-70
2022/07/27 05:26:22;;;;;;;42.20;39.63;;;;;;;20.21;41.67;101919.06;4880445;29;20409;-69
2022/07/27 05:28:47;;;;;;;42.55;40.30;;;;;;;20.21;41.60;101922.66;4879380;29;20044;-72
2022/07/27 05:31:13;;;;;;;42.40;39.88;;;;;;;20.20;41.38;101929.22;4880888;29;20347;-71
2022/07/27 05:33:38;;;;;;;41.17;38.88;;;;;;;20.20;41.64;101933.88;4879523;29;20465;-69
2022/07/27 05:36:04;;;;;;;40.85;38.58;;;;;;;20.18;42.01;101931.41;4880175;29;20488;-69
2022/07/27 05:38:29;;;;;;;40.90;38.80;;;;;;;20.18;41.73;101934.16;4880251;29;20119;-69
2022/07/27 05:40:54;;;;;;;40.45;38.28;;;;;;;20.17;41.88;101935.25;4880492;29;20037;-70
2022/07/27 05:43:20;;;;;;;40.20;38.30;;;;;;;20.17;42.14;101938.00;4880449;29;20044;-69
2022/07/27 05:45:45;;;;;;;41.85;39.60;;;;;;;20.16;42.29;101936.38;4880090;29;20037;-68
2022/07/27 05:48:11;;;;;;;39.80;37.80;;;;;;;20.17;42.26;101939.94;4880446;29;20053;-70
2022/07/27 05:50:36;;;;;;;40.28;38.28;;;;;;;20.15;42.45;101942.94;4895468;29;20044;-71
2022/07/27 05:53:02;;;;;;;42.17;39.45;;;;;;;20.15;42.20;101942.94;4880160;29;20157;-69
2022/07/27 05:55:28;;;;;;;38.58;36.67;;;;;;;20.15;42.48;101944.88;4864251;29;20052;-70
2022/07/27 05:57:53;;;;;;;41.30;39.00;;;;;;;20.14;42.36;101933.09;4880296;29;20036;-69
2022/07/27 06:00:18;;;;;;;40.70;38.50;;;;;;;20.15;42.09;101937.47;4879896;29;20041;-70
2022/07/27 06:02:44;;;;;;;39.53;37.53;;;;;;;20.15;42.75;101950.34;4880121;29;20466;-70
2022/07/27 06:05:10;;;;;;;41.95;39.38;;;;;;;20.15;42.36;101951.19;4879767;29;20053;-69
2022/07/27 06:10:19;;;;;;;41.67;38.65;;;;;;;20.15;42.42;101947.63;4879968;29;20076;-71
2022/07/27 06:12:45;;;;;;;39.80;37.90;;;;;;;20.14;42.49;101949.53;4879806;29;20060;-71
2022/07/27 06:15:12;;;;;;;38.47;36.60;;;;;;;20.14;42.65;101946.00;4879759;29;20040;-71
2022/07/27 06:17:37;;;;;;;40.67;38.28;;;;;;;20.15;42.91;101944.88;4879855;29;20043;-71
2022/07/27 06:20:05;;;;;;;40.92;38.72;;;;;;;20.15;42.79;101944.88;4879779;29;20029;-72
2022/07/27 06:22:31;;;;;;;38.37;36.40;;;;;;;20.15;42.72;101942.94;4879919;29;20073;-69
2022/07/27 06:24:57;;;;;;;40.00;37.92;;;;;;;20.17;42.73;101948.16;4879721;29;20368;-68
2022/07/27 06:27:23;;;;;;;39.83;37.80;;;;;;;20.17;42.87;101945.41;4879834;29;20037;-70
2022/07/27 06:29:48;;;;;;;40.22;38.10;;;;;;;20.17;42.71;101942.69;4880060;29;20377;-68
2022/07/27 06:32:14;;;;;;;40.33;38.42;;;;;;;20.19;42.83;101946.78;4879631;29;20398;-70
2022/07/27 06:34:39;;;;;;;40.90;38.80;;;;;;;20.17;42.52;101943.50;4879384;29;20037;-74
2022/07/27 06:37:05;;;;;;;41.08;39.08;;;;;;;20.19;43.03;101943.22;4879425;29;20033;-70
2022/07/27 06:39:30;;;;;;;44.20;41.90;;;;;;;20.19;42.66;101949.53;4879112;29;20042;-70
2022/07/27 06:41:55;;;;;;;40.50;38.38;;;;;;;20.20;42.57;101948.41;4877906;29;20048;-71
2022/07/27 06:44:21;;;;;;;39.50;37.60;;;;;;;20.22;42.84;101948.16;4879371;29;20386;-69
2022/07/27 06:46:47;;;;;;;40.20;38.30;;;;;;;20.21;42.70;101949.22;4879378;29;20045;-70
2022/07/27 06:49:12;;;;;;;40.40;38.05;;;;;;;20.22;42.68;101956.38;4878752;29;20049;-69
2022/07/27 06:51:38;;;;;;;40.05;38.10;;;;;;;20.22;42.78;101962.69;4879224;29;20159;-70
2022/07/27 06:54:04;;;;;;;40.85;38.65;;;;;;;20.25;42.64;101955.81;4893386;29;20604;-69
2022/07/27 06:56:30;;;;;;;40.15;38.22;;;;;;;20.25;42.66;101953.91;4879235;29;20048;-71
2022/07/27 06:58:55;;;;;;;41.42;38.67;;;;;;;20.26;42.36;101958.31;4878851;29;20518;-71
2022/07/27 07:01:21;;;;;;;38.72;36.42;;;;;;;20.28;42.45;101952.50;4879377;29;20041;-70
2022/07/27 07:03:46;;;;;;;38.17;36.35;;;;;;;20.28;42.52;101952.50;4879020;29;20492;-71
2022/07/27 07:06:12;;;;;;;40.72;38.13;;;;;;;20.29;42.64;101955.00;4879343;29;20454;-70
2022/07/27 07:08:38;;;;;;;39.00;37.10;;;;;;;20.30;42.91;101953.88;4879067;29;20150;-72
2022/07/27 07:11:03;;;;;;;42.42;40.33;;;;;;;20.32;42.69;101959.91;4879092;29;20217;-72
2022/07/27 07:13:29;;;;;;;39.45;37.47;;;;;;;20.34;43.17;101964.31;4878675;29;20497;-70
2022/07/27 07:15:55;;;;;;;39.58;37.47;;;;;;;20.36;43.03;101967.56;4893261;29;20128;-70
2022/07/27 07:18:20;;;;;;;39.70;37.80;;;;;;;20.37;42.76;101974.72;4881379;29;20036;-72
2022/07/27 07:20:46;;;;;;;40.42;38.22;;;;;;;20.38;42.60;101977.19;4882540;29;20045;-72
2022/07/27 07:23:11;;;;;;;41.38;38.88;;;;;;;20.38;42.54;101971.69;4883045;29;20473;-73
2022/07/27 07:25:37;;;;;;;38.58;36.65;;;;;;;20.41;42.81;101971.16;4883132;29;20040;-71
2022/07/27 07:28:04;;;;;;;40.38;38.38;;;;;;;20.42;42.96;101970.03;4882455;29;20120;-68
2022/07/27 07:30:31;;;;;;;40.00;38.10;;;;;;;20.43;42.87;101971.66;4896876;29;20033;-71
2022/07/27 07:32:57;;;;;;;42.72;40.42;;;;;;;20.44;42.99;101970.59;4882550;29;20048;-70
2022/07/27 07:35:22;;;;;;;39.67;37.78;;;;;;;20.47;42.70;101974.69;4882560;29;20108;-72
2022/07/27 07:37:48;;;;;;;40.33;37.83;;;;;;;20.49;42.96;101978.00;4882094;29;20041;-71
2022/07/27 07:40:13;;;;;;;40.22;38.22;;;;;;;20.50;42.49;101976.88;4882256;29;20041;-72
2022/07/27 07:43:01;;;;;;;41.22;39.13;;;;;;;20.50;42.64;101971.38;4896694;29;20033;-72
2022/07/27 07:45:29;;;;;;;39.45;36.83;;;;;;;20.52;42.72;101972.75;4882323;29;20085;-69
2022/07/27 07:47:55;;;;;;;40.92;38.67;;;;;;;20.53;42.25;101973.56;4882190;29;20112;-69
2022/07/27 07:50:21;;;;;;;39.35;37.40;;;;;;;20.54;42.21;101977.97;4882693;29;20055;-71
2022/07/27 07:52:48;;;;;;;39.58;37.67;;;;;;;20.55;42.47;101978.81;4880557;29;20033;-70
2022/07/27 07:55:14;;;;;;;41.42;39.35;;;;;;;20.56;42.51;101973.03;4881705;29;20036;-68
2022/07/27 07:57:39;;;;;;;41.22;39.13;;;;;;;20.56;42.04;101981.25;4882054;29;20469;-69
2022/07/27 08:00:08;;;;;;;41.28;39.08;;;;;;;20.58;42.34;101983.75;4896215;29;20030;-69
2022/07/27 08:02:44;;;;;;;38.58;36.47;;;;;;;20.59;42.27;101985.38;4882699;29;20029;-71
2022/07/27 08:05:10;;;;;;;42.47;39.75;;;;;;;20.60;42.26;101985.09;4881873;29;20370;-73
2022/07/27 08:07:36;;;;;;;41.45;39.25;;;;;;;20.60;42.45;101996.09;4882122;29;20033;-72
2022/07/27 08:10:02;;;;;;;41.25;39.00;;;;;;;20.61;42.01;101989.47;4881532;29;20373;-71
2022/07/27 08:12:27;;;;;;;40.70;38.67;;;;;;;20.61;41.96;101988.66;4881668;29;20041;-71
2022/07/27 08:14:53;;;;;;;41.40;39.20;;;;;;;20.63;42.40;101990.03;4881495;29;20043;-71
2022/07/27 08:17:18;;;;;;;41.40;39.15;;;;;;;20.65;42.14;101998.81;4881872;29;20037;-71
2022/07/27 08:19:44;;;;;;;42.67;40.40;;;;;;;20.65;42.45;101998.81;4895827;29;20128;-71
2022/07/27 08:22:09;;;;;;;41.00;39.00;;;;;;;20.66;41.95;101991.41;4881419;29;20458;-68
2022/07/27 08:24:34;;;;;;;40.55;38.58;;;;;;;20.67;42.22;102001.28;4881764;29;20041;-72
2022/07/27 08:27:00;;;;;;;40.83;38.78;;;;;;;20.69;42.11;101997.16;4881369;29;20167;-70
2022/07/27 08:29:25;;;;;;;40.63;38.53;;;;;;;20.70;41.88;102001.53;4880880;29;20089;-71
2022/07/27 08:31:51;;;;;;;42.67;40.40;;;;;;;20.71;42.12;101994.13;4880172;29;20044;-71
2022/07/27 08:34:16;;;;;;;41.35;39.15;;;;;;;20.73;41.96;101994.66;4881432;29;20081;-69
2022/07/27 08:36:41;;;;;;;41.33;39.30;;;;;;;20.75;41.66;101995.22;4880056;29;20084;-71
2022/07/27 08:39:07;;;;;;;41.28;39.28;;;;;;;20.75;41.56;101993.28;4880739;29;20025;-68
2022/07/27 08:41:36;;;;;;;40.58;38.58;;;;;;;20.78;41.96;101993.81;4881071;29;20466;-69
2022/07/27 08:44:02;;;;;;;41.28;38.88;;;;;;;20.79;41.48;101990.81;4880985;29;20040;-71
2022/07/27 08:46:31;;;;;;;41.42;39.28;;;;;;;20.80;41.41;101992.44;4880908;29;20386;-72
2022/07/27 08:49:01;;;;;;;41.95;39.75;;;;;;;20.83;41.16;101996.56;4881300;29;20053;-72
2022/07/27 08:51:27;;;;;;;42.50;40.25;;;;;;;20.84;41.35;102003.66;4881049;29;20048;-73
2022/07/27 08:53:54;;;;;;;41.03;38.83;;;;;;;20.86;41.71;101998.72;4879545;29;20049;-75
2022/07/27 08:56:20;;;;;;;42.08;39.97;;;;;;;20.88;41.33;102004.75;4880903;29;20025;-75
2022/07/27 08:58:46;;;;;;;43.60;41.50;;;;;;;20.89;41.39;102004.50;4880804;29;20112;-74
2022/07/27 09:01:11;;;;;;;43.03;40.67;;;;;;;20.92;41.00;102003.13;4881397;29;20071;-70
2022/07/27 09:03:36;;;;;;;41.50;39.00;;;;;;;20.93;41.03;102008.31;4895199;29;20069;-71
2022/07/27 09:06:03;;;;;;;42.35;40.05;;;;;;;20.95;41.23;102005.28;4880398;29;20032;-69
2022/07/27 09:08:30;;;;;;;41.75;39.55;;;;;;;20.97;41.29;102008.56;4880679;29;20124;-71
2022/07/27 09:10:58;;;;;;;41.97;39.97;;;;;;;21.00;41.29;102009.94;4864322;29;20072;-71
2022/07/27 09:13:23;;;;;;;41.33;39.27;;;;;;;21.02;41.42;101999.50;4880914;29;20045;-72
2022/07/27 09:15:55;;;;;;;43.03;40.75;;;;;;;21.03;41.36;102010.19;4880615;29;20448;-74
2022/07/27 09:18:26;;;;;;;43.85;41.45;;;;;;;21.04;41.39;102011.00;4880420;29;20029;-71
2022/07/27 09:21:19;;;;;;;44.20;41.47;;;;;;;21.05;41.50;102004.41;4880701;29;20036;-72
2022/07/27 09:23:50;;;;;;;42.13;39.92;;;;;;;21.06;41.04;102001.38;4881070;29;20025;-74
2022/07/27 09:26:22;;;;;;;44.15;41.65;;;;;;;21.07;41.47;102005.78;4880650;29;20112;-74
2022/07/27 09:28:53;;;;;;;43.33;41.22;;;;;;;21.10;41.07;102007.94;4880278;29;20033;-72
2022/07/27 09:31:18;;;;;;;43.25;41.15;;;;;;;21.13;41.07;102003.81;4895550;29;20029;-68
2022/07/27 09:33:50;;;;;;;42.60;40.20;;;;;;;21.15;41.55;101996.94;4879975;29;20049;-72
2022/07/27 09:36:18;;;;;;;43.97;41.63;;;;;;;21.17;41.27;101993.91;4880769;29;20505;-70
2022/07/27 09:38:55;;;;;;;43.55;41.15;;;;;;;21.20;41.33;102001.59;4880345;29;20029;-68
2022/07/27 09:41:22;;;;;;;43.83;41.35;;;;;;;21.22;41.52;101995.78;4879454;29;20040;-69
2022/07/27 09:43:54;;;;;;;43.72;41.53;;;;;;;21.24;41.20;101999.06;4880833;29;20112;-75
2022/07/27 09:46:33;;;;;;;43.13;40.85;;;;;;;21.25;41.04;101992.50;4880548;29;20097;-72
2022/07/27 09:48:59;;;;;;;42.65;40.30;;;;;;;21.26;41.49;101992.19;4878617;29;20101;-70
2022/07/27 09:51:25;;;;;;;42.58;40.58;;;;;;;21.29;41.16;101990.81;4893878;29;20055;-71
2022/07/27 09:53:52;;;;;;;41.70;39.17;;;;;;;21.34;41.25;101988.00;4880287;29;20033;-72
2022/07/27 09:56:25;;;;;;;42.28;40.17;;;;;;;21.38;40.75;101986.34;4880510;29;20033;-71
2022/07/27 09:58:52;;;;;;;46.47;43.80;;;;;;;21.43;40.70;101989.09;4879942;29;20029;-73
2022/07/27 10:01:26;;;;;;;45.20;42.90;;;;;;;21.46;40.97;101988.53;4880009;29;20123;-69
2022/07/27 10:03:54;;;;;;;43.80;41.70;;;;;;;21.51;40.89;101985.72;4879923;29;20312;-70
2022/07/27 10:06:21;;;;;;;45.30;43.00;;;;;;;21.55;40.60;101981.31;4879716;29;20065;-70
2022/07/27 10:08:48;;;;;;;44.00;41.45;;;;;;;21.58;40.38;101990.91;4879760;29;20116;-72
2022/07/27 10:11:14;;;;;;;44.30;41.90;;;;;;;21.61;40.77;101996.66;4880046;29;20040;-74
2022/07/27 10:13:41;;;;;;;43.90;41.60;;;;;;;21.64;41.00;101984.25;4879878;29;20029;-71
2022/07/27 10:16:11;;;;;;;45.72;43.10;;;;;;;21.69;40.72;101986.97;4879794;29;20025;-72
2022/07/27 10:18:37;;;;;;;44.90;42.60;;;;;;;21.72;40.44;101991.06;4879773;29;20032;-73
2022/07/27 10:21:08;;;;;;;44.20;41.90;;;;;;;21.76;40.30;101986.66;4879472;29;20029;-72
2022/07/27 10:23:36;;;;;;;44.28;42.03;;;;;;;21.80;40.04;101983.03;4879785;29;20032;-72
2022/07/27 10:26:14;;;;;;;43.83;41.30;;;;;;;21.85;40.17;101982.16;4879629;29;20028;-72
2022/07/27 10:29:05;;;;;;;45.45;43.22;;;;;;;21.88;40.60;101973.34;4879643;29;20044;-71
2022/07/27 10:31:30;;;;;;;44.65;42.47;;;;;;;21.92;40.34;101970.81;4879831;29;20029;-73
2022/07/27 10:33:58;;;;;;;44.92;42.65;;;;;;;21.96;40.12;101974.63;4879798;29;20029;-73
2022/07/27 10:36:24;;;;;;;;;;;;;;;21.99;40.55;101969.38;4879850;29;20113;-72
2022/07/27 10:38:52;;;;;;;43.03;40.72;;;;;;;22.03;40.60;101972.38;4879437;29;20264;-73
2022/07/27 10:41:33;;;;;;;43.70;41.40;;;;;;;22.07;39.95;101962.41;4879692;29;20021;-73
2022/07/27 10:44:13;;;;;;;45.17;42.40;;;;;;;22.12;40.23;101954.09;4894038;29;20381;-72
2022/07/27 10:46:50;;;;;;;45.88;43.10;;;;;;;22.17;40.17;101958.72;4879171;29;20482;-71
2022/07/27 10:49:25;;;;;;;46.70;44.40;;;;;;;22.20;40.00;101961.78;4879920;29;20053;-73
2022/07/27 10:51:54;;;;;;;45.90;43.70;;;;;;;22.24;39.82;101957.31;4881914;29;20096;-71
2022/07/27 10:54:36;;;;;;;48.40;46.00;;;;;;;22.29;39.71;101952.88;4883192;29;20468;-72
2022/07/27 10:57:04;;;;;;;46.03;43.42;;;;;;;22.33;40.04;101952.00;4883208;29;20043;-72
2022/07/27 10:59:39;;;;;;;45.15;42.95;;;;;;;22.38;39.60;101949.19;4883323;29;20021;-73
2022/07/27 11:02:06;;;;;;;46.53;44.03;;;;;;;22.44;39.29;101950.75;4883156;29;20059;-71
2022/07/27 11:04:33;;;;;;;49.35;46.85;;;;;;;22.49;39.44;101938.03;4883081;29;20073;-73
2022/07/27 11:07:00;;;;;;;47.58;45.17;;;;;;;22.54;39.40;101936.03;4883128;29;20029;-72
2022/07/27 11:09:36;;;;;;;48.15;45.65;;;;;;;22.60;39.11;101943.13;4882949;29;20029;-73
2022/07/27 11:12:03;;;;;;;46.03;43.80;;;;;;;22.66;38.93;101935.63;4883073;29;20033;-75